createdAt,value
2024-05-09T00:00:44.724Z,12.14
2024-05-09T00:03:12.652Z,12.12
2024-05-09T00:05:43.756Z,12.10
2024-05-09T00:08:11.900Z,12.05
2024-05-09T00:10:40.722Z,11.97
2024-05-09T00:13:09.335Z,11.91
2024-05-09T00:15:37.311Z,11.88
2024-05-09T00:18:05.965Z,11.89
2024-05-09T00:20:38.819Z,11.81
2024-05-09T00:23:10.566Z,11.77
2024-05-09T00:25:38.305Z,11.79
2024-05-09T00:28:06.229Z,11.81
2024-05-09T00:30:36.167Z,11.77
2024-05-09T00:33:06.549Z,11.87
2024-05-09T00:35:35.489Z,11.93
2024-05-09T00:38:03.292Z,12.01
2024-05-09T00:40:39.850Z,12.09
2024-05-09T00:43:14.512Z,12.22
2024-05-09T00:45:42.972Z,12.36
2024-05-09T00:48:13.428Z,12.37
2024-05-09T00:50:42.994Z,12.39
2024-05-09T00:53:11.783Z,12.44
2024-05-09T00:55:39.579Z,12.44
2024-05-09T00:58:07.791Z,12.46
2024-05-09T01:00:39.421Z,12.53
2024-05-09T01:03:10.899Z,12.45
2024-05-09T01:05:40.610Z,12.42
2024-05-09T01:08:08.740Z,12.42
2024-05-09T01:10:37.094Z,12.40
2024-05-09T01:13:05.033Z,12.40
2024-05-09T01:15:32.978Z,12.33
2024-05-09T01:18:01.728Z,12.40
2024-05-09T01:20:39.533Z,12.41
2024-05-09T01:23:10.549Z,12.40
2024-05-09T01:25:38.107Z,12.38
2024-05-09T01:28:06.093Z,12.39
2024-05-09T01:30:36.106Z,12.38
2024-05-09T01:33:07.310Z,12.36
2024-05-09T01:35:36.705Z,12.33
2024-05-09T01:38:04.461Z,12.30
2024-05-09T01:40:37.599Z,12.24
2024-05-09T01:43:08.294Z,12.15
2024-05-09T01:45:36.585Z,12.05
2024-05-09T01:48:04.740Z,11.92
2024-05-09T01:50:38.526Z,11.88
2024-05-09T01:53:09.959Z,11.79
2024-05-09T01:55:37.615Z,11.76
2024-05-09T01:58:05.082Z,11.74
2024-05-09T02:00:39.164Z,11.77
2024-05-09T02:03:15.609Z,11.67
2024-05-09T02:05:46.164Z,11.65
2024-05-09T02:08:15.597Z,11.70
2024-05-09T02:10:47.607Z,11.65
2024-05-09T02:13:15.630Z,11.63
2024-05-09T02:15:43.211Z,11.58
2024-05-09T02:18:11.185Z,11.51
2024-05-09T02:20:39.469Z,11.45
2024-05-09T02:23:08.613Z,11.37
2024-05-09T02:25:36.294Z,11.32
2024-05-09T02:28:03.870Z,11.32
2024-05-09T02:30:39.315Z,11.36
2024-05-09T02:33:10.973Z,11.31
2024-05-09T02:35:40.473Z,11.24
2024-05-09T02:38:09.083Z,11.18
2024-05-09T02:40:38.784Z,11.11
2024-05-09T02:43:07.900Z,11.03
2024-05-09T02:45:35.812Z,11.00
2024-05-09T02:48:03.535Z,10.97
2024-05-09T02:50:37.802Z,10.93
2024-05-09T02:53:08.410Z,11.04
2024-05-09T02:55:36.619Z,11.08
2024-05-09T02:58:04.117Z,11.11
2024-05-09T03:00:38.424Z,11.09
2024-05-09T03:03:10.100Z,11.05
2024-05-09T03:05:39.847Z,11.00
2024-05-09T03:08:07.708Z,11.04
2024-05-09T03:10:37.271Z,11.03
2024-05-09T03:13:07.429Z,11.01
2024-05-09T03:15:34.794Z,11.03
2024-05-09T03:18:02.510Z,11.05
2024-05-09T03:20:34.252Z,11.19
2024-05-09T03:23:04.548Z,11.15
2024-05-09T03:25:32.273Z,11.22
2024-05-09T03:27:59.809Z,11.27
2024-05-09T03:30:38.703Z,11.31
2024-05-09T03:33:15.552Z,11.30
2024-05-09T03:35:43.946Z,11.38
2024-05-09T03:38:11.493Z,11.43
2024-05-09T03:40:47.258Z,11.39
2024-05-09T03:43:14.903Z,11.47
2024-05-09T03:45:42.854Z,11.53
2024-05-09T03:48:10.674Z,11.55
2024-05-09T03:50:38.465Z,11.60
2024-05-09T03:53:06.304Z,11.61
2024-05-09T03:55:33.730Z,11.57
2024-05-09T03:58:01.146Z,11.69
2024-05-09T04:00:35.775Z,11.76
2024-05-09T04:03:08.946Z,11.78
2024-05-09T04:05:43.795Z,11.79
2024-05-09T04:08:14.711Z,11.77
2024-05-09T04:10:42.361Z,11.84
2024-05-09T04:13:10.339Z,11.87
2024-05-09T04:15:37.754Z,11.94
2024-05-09T04:18:05.607Z,11.93
2024-05-09T04:20:38.422Z,12.09
2024-05-09T04:23:11.396Z,12.38
2024-05-09T04:25:41.392Z,12.71
2024-05-09T04:28:08.760Z,12.96
2024-05-09T04:30:39.424Z,13.25
2024-05-09T04:33:11.183Z,13.32
2024-05-09T04:35:42.617Z,13.00
2024-05-09T04:38:10.684Z,13.01
2024-05-09T04:40:38.456Z,13.02
2024-05-09T04:43:06.904Z,13.35
2024-05-09T04:45:35.267Z,13.45
2024-05-09T04:48:03.367Z,13.62
2024-05-09T04:50:36.835Z,13.71
2024-05-09T04:53:08.382Z,13.60
2024-05-09T04:55:37.362Z,13.63
2024-05-09T04:58:05.665Z,13.63
2024-05-09T05:00:37.216Z,13.69
2024-05-09T05:03:13.056Z,13.84
2024-05-09T05:05:44.038Z,13.76
2024-05-09T05:08:15.685Z,13.75
2024-05-09T05:10:43.940Z,13.60
2024-05-09T05:13:20.822Z,13.53
2024-05-09T05:15:51.052Z,13.38
2024-05-09T05:18:18.929Z,13.69
2024-05-09T05:20:46.740Z,13.72
2024-05-09T05:23:15.923Z,13.81
2024-05-09T05:25:43.822Z,13.77
2024-05-09T05:28:11.371Z,13.91
2024-05-09T05:30:39.062Z,13.96
2024-05-09T05:33:07.110Z,13.73
2024-05-09T05:35:34.985Z,13.82
2024-05-09T05:38:03.351Z,13.91
2024-05-09T05:40:36.397Z,14.08
2024-05-09T05:43:05.983Z,14.00
2024-05-09T05:45:33.543Z,14.12
2024-05-09T05:48:06.601Z,14.31
2024-05-09T05:50:37.195Z,14.31
2024-05-09T05:53:06.797Z,14.32
2024-05-09T05:55:34.490Z,14.43
2024-05-09T05:58:02.411Z,14.55
2024-05-09T06:00:37.427Z,14.78
2024-05-09T06:03:08.018Z,14.93
2024-05-09T06:05:36.564Z,14.70
2024-05-09T06:08:06.690Z,14.92
2024-05-09T06:10:38.444Z,14.90
2024-05-09T06:13:12.204Z,15.09
2024-05-09T06:15:40.621Z,15.28
2024-05-09T06:18:09.128Z,15.54
2024-05-09T06:20:38.380Z,15.57
2024-05-09T06:23:06.639Z,15.59
2024-05-09T06:25:37.188Z,15.86
2024-05-09T06:28:05.100Z,15.99
2024-05-09T06:30:39.339Z,15.93
2024-05-09T06:33:10.810Z,16.06
2024-05-09T06:35:40.525Z,16.24
2024-05-09T06:38:11.650Z,16.49
2024-05-09T06:40:41.311Z,16.45
2024-05-09T06:43:13.414Z,16.48
2024-05-09T06:45:41.148Z,16.46
2024-05-09T06:48:09.122Z,16.46
2024-05-09T06:50:38.544Z,16.43
2024-05-09T06:53:07.911Z,16.36
2024-05-09T06:55:36.093Z,16.18
2024-05-09T06:58:05.522Z,16.22
2024-05-09T07:00:38.888Z,16.33
2024-05-09T07:03:09.949Z,16.38
2024-05-09T07:05:37.852Z,16.49
2024-05-09T07:08:06.247Z,16.71
2024-05-09T07:10:35.870Z,16.84
2024-05-09T07:13:11.205Z,17.01
2024-05-09T07:15:38.954Z,17.04
2024-05-09T07:18:15.579Z,17.15
2024-05-09T07:20:43.667Z,17.48
2024-05-09T07:23:12.061Z,17.76
2024-05-09T07:25:40.148Z,17.85
2024-05-09T07:28:13.383Z,17.73
2024-05-09T07:30:41.133Z,17.54
2024-05-09T07:33:08.686Z,17.24
2024-05-09T07:35:36.454Z,17.35
2024-05-09T07:38:04.034Z,17.48
2024-05-09T07:40:36.099Z,17.41
2024-05-09T07:43:04.978Z,17.44
2024-05-09T07:52:23.394Z,17.40
2024-05-09T07:53:39.475Z,17.71
2024-05-09T07:56:11.522Z,17.77
2024-05-09T07:58:39.514Z,17.66
2024-05-09T08:01:07.076Z,17.77
2024-05-09T08:03:34.836Z,18.10
2024-05-09T08:06:02.369Z,17.99
2024-05-09T08:08:29.763Z,17.95
2024-05-09T08:10:57.198Z,17.98
2024-05-09T08:13:24.657Z,17.99
2024-05-09T08:15:52.628Z,18.31
2024-05-09T08:18:20.430Z,18.44
2024-05-09T08:20:48.477Z,18.24
2024-05-09T08:23:15.918Z,17.92
2024-05-09T08:25:43.404Z,18.26
2024-05-09T08:28:11.532Z,18.36
2024-05-09T08:30:39.255Z,18.35
2024-05-09T08:33:07.632Z,18.49
2024-05-09T08:35:35.795Z,18.56
2024-05-09T08:38:04.185Z,18.72
2024-05-09T08:40:35.738Z,18.98
2024-05-09T08:43:09.843Z,19.23
2024-05-09T08:45:39.571Z,19.25
2024-05-09T08:48:08.369Z,19.05
2024-05-09T08:50:39.216Z,19.23
2024-05-09T08:53:08.264Z,19.21
2024-05-09T08:55:40.234Z,18.80
2024-05-09T08:58:18.261Z,18.89
2024-05-09T09:00:46.472Z,19.02
2024-05-09T09:03:22.817Z,18.89
2024-05-09T09:06:02.889Z,19.07
2024-05-09T09:08:30.251Z,19.25
2024-05-09T09:11:00.552Z,19.48
2024-05-09T09:13:27.978Z,19.70
2024-05-09T09:15:58.623Z,19.92
2024-05-09T09:18:27.047Z,20.14
2024-05-09T09:20:55.104Z,20.08
2024-05-09T09:23:22.801Z,20.26
2024-05-09T09:25:50.549Z,20.39
2024-05-09T09:28:18.080Z,20.15
2024-05-09T09:30:45.580Z,20.16
2024-05-09T09:33:13.181Z,20.26
2024-05-09T09:35:42.620Z,20.56
2024-05-09T09:38:10.731Z,20.62
2024-05-09T09:40:46.722Z,20.62
2024-05-09T09:43:21.448Z,20.54
2024-05-09T09:45:51.148Z,20.52
2024-05-09T09:48:19.971Z,20.48
2024-05-09T09:50:47.726Z,20.27
2024-05-09T09:53:15.088Z,20.41
2024-05-09T09:55:42.448Z,20.70
2024-05-09T09:58:13.375Z,20.77
2024-05-09T10:00:42.274Z,20.95
2024-05-09T10:03:09.987Z,21.20
2024-05-09T10:05:37.947Z,21.36
2024-05-09T10:08:09.241Z,21.38
2024-05-09T10:10:36.736Z,21.56
2024-05-09T10:13:04.926Z,21.76
2024-05-09T10:15:48.547Z,21.51
2024-05-09T10:18:16.437Z,21.67
2024-05-09T10:20:44.762Z,21.89
2024-05-09T10:23:28.658Z,21.02
2024-05-09T10:26:00.421Z,21.20
2024-05-09T10:28:28.858Z,21.13
2024-05-09T10:31:09.889Z,21.66
2024-05-09T10:33:55.860Z,21.90
2024-05-09T10:36:27.287Z,21.58
2024-05-09T10:38:55.154Z,21.93
2024-05-09T10:41:23.207Z,22.16
2024-05-09T10:43:50.916Z,22.06
2024-05-09T10:46:21.499Z,22.20
2024-05-09T10:48:49.927Z,22.13
2024-05-09T10:51:19.294Z,22.16
2024-05-09T10:53:47.886Z,22.19
2024-05-09T10:56:15.360Z,22.39
2024-05-09T10:58:42.822Z,22.59
2024-05-09T11:01:11.506Z,22.68
2024-05-09T11:03:39.712Z,22.46
2024-05-09T11:06:07.678Z,22.32
2024-05-09T11:08:35.219Z,22.12
2024-05-09T11:11:04.748Z,22.68
2024-05-09T11:13:35.686Z,22.58
2024-05-09T11:16:03.352Z,22.80
2024-05-09T11:18:35.199Z,22.76
2024-05-09T11:21:14.225Z,23.06
2024-05-09T11:23:41.852Z,23.00
2024-05-09T11:26:10.892Z,23.06
2024-05-09T11:28:38.487Z,22.94
2024-05-09T11:31:07.571Z,22.95
2024-05-09T11:33:39.270Z,23.07
2024-05-09T11:36:07.467Z,23.07
2024-05-09T11:38:35.973Z,23.26
2024-05-09T11:41:04.440Z,23.47
2024-05-09T11:43:31.957Z,23.21
2024-05-09T11:46:03.550Z,23.16
2024-05-09T11:48:31.808Z,23.26
2024-05-09T11:50:59.551Z,23.57
2024-05-09T11:53:26.949Z,23.59
2024-05-09T11:55:54.315Z,23.47
2024-05-09T11:58:23.066Z,23.46
2024-05-09T12:00:50.603Z,23.83
2024-05-09T12:03:18.204Z,23.52
2024-05-09T12:05:45.925Z,23.63
2024-05-09T12:08:14.275Z,23.40
2024-05-09T12:10:44.880Z,23.65
2024-05-09T12:13:12.449Z,23.73
2024-05-09T12:15:39.944Z,23.95
2024-05-09T12:18:08.217Z,24.05
2024-05-09T12:20:38.847Z,24.33
2024-05-09T12:23:09.334Z,24.52
2024-05-09T12:25:38.403Z,24.26
2024-05-09T12:28:06.423Z,24.19
2024-05-09T12:30:38.330Z,24.38
2024-05-09T12:33:09.276Z,24.66
2024-05-09T12:35:37.014Z,24.40
2024-05-09T12:38:04.647Z,24.77
2024-05-09T12:40:36.687Z,25.18
2024-05-09T12:43:10.225Z,24.75
2024-05-09T12:45:39.090Z,24.42
2024-05-09T12:48:11.910Z,24.53
2024-05-09T12:50:40.186Z,24.31
2024-05-09T12:53:07.659Z,23.82
2024-05-09T12:55:43.920Z,23.98
2024-05-09T12:58:17.298Z,24.11
2024-05-09T13:00:45.492Z,23.82
2024-05-09T13:03:13.482Z,24.24
2024-05-09T13:05:41.680Z,24.23
2024-05-09T13:08:09.418Z,24.48
2024-05-09T13:10:37.026Z,24.22
2024-05-09T13:13:04.838Z,24.37
2024-05-09T13:15:34.554Z,24.75
2024-05-09T13:18:03.522Z,24.55
2024-05-09T13:20:34.224Z,24.76
2024-05-09T13:23:04.275Z,25.02
2024-05-09T13:25:34.314Z,25.19
2024-05-09T13:28:04.878Z,25.42
2024-05-09T13:30:39.474Z,25.66
2024-05-09T13:33:13.650Z,25.31
2024-05-09T13:35:46.679Z,25.09
2024-05-09T13:38:17.539Z,25.37
2024-05-09T13:40:45.444Z,25.73
2024-05-09T13:43:13.640Z,25.59
2024-05-09T13:45:41.176Z,25.44
2024-05-09T13:48:10.007Z,25.70
2024-05-09T13:50:37.741Z,25.59
2024-05-09T13:53:06.988Z,25.81
2024-05-09T13:55:37.420Z,25.92
2024-05-09T13:58:05.163Z,25.11
2024-05-09T14:00:43.797Z,25.41
2024-05-09T14:03:16.618Z,25.95
2024-05-09T14:05:45.493Z,26.47
2024-05-09T14:08:15.266Z,27.48
2024-05-09T14:10:45.143Z,28.44
2024-05-09T14:13:13.527Z,29.31
2024-05-09T14:15:41.234Z,29.64
2024-05-09T14:18:12.431Z,29.16
2024-05-09T14:20:42.089Z,30.06
2024-05-09T14:23:09.781Z,30.35
2024-05-09T14:25:42.018Z,30.92
2024-05-09T14:28:11.322Z,30.23
2024-05-09T14:30:39.639Z,30.44
2024-05-09T14:33:09.897Z,29.59
2024-05-09T14:35:38.669Z,30.00
2024-05-09T14:38:07.251Z,31.14
2024-05-09T14:40:41.383Z,30.39
2024-05-09T14:43:11.877Z,30.20
2024-05-09T14:45:39.763Z,31.22
2024-05-09T14:48:07.883Z,30.31
2024-05-09T14:50:38.667Z,30.35
2024-05-09T14:53:08.430Z,30.65
2024-05-09T14:55:37.500Z,30.60
2024-05-09T14:58:09.242Z,30.98
2024-05-09T15:00:40.320Z,30.84
2024-05-09T15:03:10.648Z,30.24
2024-05-09T15:05:38.102Z,30.26
2024-05-09T15:08:06.317Z,29.59
2024-05-09T15:10:36.106Z,30.58
2024-05-09T15:13:05.340Z,30.82
2024-05-09T15:15:33.469Z,31.16
2024-05-09T15:18:01.030Z,30.71
2024-05-09T15:20:34.577Z,31.62
2024-05-09T15:23:04.938Z,31.77
2024-05-09T15:25:36.051Z,30.98
2024-05-09T15:28:04.925Z,31.08
2024-05-09T15:30:34.034Z,30.22
2024-05-09T15:33:06.547Z,31.03
2024-05-09T15:35:35.582Z,31.03
2024-05-09T15:38:03.676Z,30.87
2024-05-09T15:40:38.398Z,29.67
2024-05-09T15:43:08.860Z,30.28
2024-05-09T15:45:37.568Z,30.85
2024-05-09T15:48:05.774Z,30.21
2024-05-09T15:50:38.759Z,30.46
2024-05-09T15:53:09.952Z,30.02
2024-05-09T15:55:38.262Z,29.51
2024-05-09T15:58:06.533Z,29.78
2024-05-09T16:00:39.159Z,29.92
2024-05-09T16:03:10.505Z,29.44
2024-05-09T16:05:38.570Z,29.41
2024-05-09T16:08:06.721Z,29.21
2024-05-09T16:10:35.134Z,27.97
2024-05-09T16:13:03.772Z,28.30
2024-05-09T16:15:31.951Z,27.29
2024-05-09T16:18:00.264Z,25.54
2024-05-09T16:20:37.235Z,24.16
2024-05-09T16:23:08.314Z,23.72
2024-05-09T16:25:36.267Z,23.33
2024-05-09T16:28:07.566Z,22.94
2024-05-09T16:30:39.122Z,22.75
2024-05-09T16:33:07.116Z,22.48
2024-05-09T16:35:35.274Z,22.32
2024-05-09T16:38:03.015Z,22.17
2024-05-09T16:40:37.443Z,21.95
2024-05-09T16:43:09.109Z,21.95
2024-05-09T16:45:37.697Z,21.92
2024-05-09T16:48:06.568Z,21.96
2024-05-09T16:50:35.688Z,21.74
2024-05-09T16:53:05.005Z,21.53
2024-05-09T16:55:33.392Z,21.53
2024-05-09T16:58:01.150Z,21.60
2024-05-09T17:00:37.822Z,21.46
2024-05-09T17:03:09.991Z,21.26
2024-05-09T17:05:38.319Z,21.03
2024-05-09T17:08:06.479Z,21.09
2024-05-09T17:10:35.266Z,21.00
2024-05-09T17:13:04.666Z,20.88
2024-05-09T17:15:33.771Z,20.87
2024-05-09T17:18:01.731Z,20.91
2024-05-09T17:20:34.075Z,20.85
2024-05-09T17:23:04.591Z,20.65
2024-05-09T17:25:32.689Z,20.47
2024-05-09T17:28:06.506Z,20.26
2024-05-09T17:30:37.027Z,20.25
2024-05-09T17:33:07.083Z,20.18
2024-05-09T17:35:35.705Z,20.09
2024-05-09T17:38:03.103Z,20.02
2024-05-09T17:40:34.260Z,19.91
2024-05-09T17:43:04.993Z,19.84
2024-05-09T17:45:33.262Z,19.79
2024-05-09T17:48:01.319Z,19.68
2024-05-09T17:50:35.439Z,19.49
2024-05-09T17:53:08.168Z,19.35
2024-05-09T17:55:36.146Z,19.29
2024-05-09T17:58:04.824Z,19.25
2024-05-09T18:00:38.526Z,19.19
2024-05-09T18:03:11.033Z,18.98
2024-05-09T18:05:39.497Z,18.98
2024-05-09T18:08:07.388Z,18.94
2024-05-09T18:10:38.576Z,18.86
2024-05-09T18:13:08.484Z,18.84
2024-05-09T18:15:36.409Z,18.82
2024-05-09T18:18:04.615Z,18.81
2024-05-09T18:20:41.427Z,18.75
2024-05-09T18:23:17.474Z,18.63
2024-05-09T18:25:46.405Z,18.54
2024-05-09T18:28:14.565Z,18.45
2024-05-09T18:30:42.110Z,18.44
2024-05-09T18:33:10.643Z,18.43
2024-05-09T18:35:38.696Z,18.30
2024-05-09T18:38:06.242Z,18.23
2024-05-09T18:40:36.675Z,18.21
2024-05-09T18:43:07.492Z,18.10
2024-05-09T18:45:39.569Z,18.03
2024-05-09T18:48:08.534Z,18.00
2024-05-09T18:50:39.462Z,17.89
2024-05-09T18:53:12.795Z,17.86
2024-05-09T18:55:43.686Z,17.72
2024-05-09T18:58:11.240Z,17.74
2024-05-09T19:00:41.390Z,17.71
2024-05-09T19:03:13.530Z,17.56
2024-05-09T19:05:43.967Z,17.52
2024-05-09T19:08:12.753Z,17.39
2024-05-09T19:10:40.611Z,17.36
2024-05-09T19:13:11.964Z,17.36
2024-05-09T19:15:41.947Z,17.32
2024-05-09T19:18:10.369Z,17.21
2024-05-09T19:20:38.495Z,17.14
2024-05-09T19:23:06.865Z,16.98
2024-05-09T19:25:35.500Z,16.90
2024-05-09T19:28:04.000Z,16.77
2024-05-09T19:30:38.647Z,16.74
2024-05-09T19:33:10.237Z,16.60
2024-05-09T19:35:38.856Z,16.55
2024-05-09T19:38:06.376Z,16.36
2024-05-09T19:40:35.089Z,16.34
2024-05-09T19:43:04.858Z,16.26
2024-05-09T19:45:34.439Z,16.35
2024-05-09T19:48:02.735Z,16.22
2024-05-09T19:50:37.883Z,16.28
2024-05-09T19:53:10.745Z,16.11
2024-05-09T19:55:38.695Z,16.08
2024-05-09T19:58:07.340Z,16.03
2024-05-09T20:00:37.597Z,16.06
2024-05-09T20:03:07.504Z,16.06
2024-05-09T20:05:35.651Z,15.98
2024-05-09T20:08:03.514Z,15.81
2024-05-09T20:10:33.318Z,15.76
2024-05-09T20:13:03.217Z,15.65
2024-05-09T20:15:31.675Z,15.59
2024-05-09T20:17:59.215Z,15.35
2024-05-09T20:20:35.555Z,15.17
2024-05-09T20:23:06.856Z,15.29
2024-05-09T20:25:34.228Z,15.29
2024-05-09T20:28:01.703Z,15.32
2024-05-09T20:30:32.790Z,15.33
2024-05-09T20:33:02.458Z,15.15
2024-05-09T20:35:31.958Z,15.24
2024-05-09T20:37:59.650Z,15.24
2024-05-09T20:40:32.655Z,15.29
2024-05-09T20:43:03.916Z,15.25
2024-05-09T20:45:31.454Z,15.31
2024-05-09T20:47:58.994Z,15.26
2024-05-09T20:50:36.316Z,15.32
2024-05-09T20:53:12.159Z,15.32
2024-05-09T20:55:40.600Z,15.33
2024-05-09T20:58:08.732Z,15.32
2024-05-09T21:00:40.490Z,15.27
2024-05-09T21:03:12.449Z,15.26
2024-05-09T21:05:40.907Z,15.26
2024-05-09T21:08:08.751Z,15.27
2024-05-09T21:10:36.990Z,15.20
2024-05-09T21:13:05.874Z,15.10
2024-05-09T21:15:34.311Z,15.03
2024-05-09T21:18:01.950Z,14.99
2024-05-09T21:20:32.759Z,14.92
2024-05-09T21:23:01.455Z,14.85
2024-05-09T21:25:29.466Z,14.78
2024-05-09T21:27:56.962Z,14.77
2024-05-09T21:30:33.154Z,14.63
2024-05-09T21:33:09.847Z,14.57
2024-05-09T21:35:38.971Z,14.43
2024-05-09T21:38:07.261Z,14.31
2024-05-09T21:40:36.496Z,14.28
2024-05-09T21:43:06.324Z,14.20
2024-05-09T21:45:34.419Z,14.18
2024-05-09T21:48:05.454Z,14.10
2024-05-09T21:50:39.638Z,14.12
2024-05-09T21:53:10.592Z,14.17
2024-05-09T21:55:38.201Z,14.14
2024-05-09T21:58:05.747Z,14.05
2024-05-09T22:00:37.640Z,13.94
2024-05-09T22:03:07.271Z,13.78
2024-05-09T22:05:35.662Z,13.75
2024-05-09T22:08:03.581Z,13.81
2024-05-09T22:10:34.753Z,13.72
2024-05-09T22:13:05.412Z,13.66
2024-05-09T22:15:37.958Z,13.68
2024-05-09T22:18:08.073Z,13.66
2024-05-09T22:20:38.819Z,13.69
2024-05-09T22:23:08.288Z,13.80
2024-05-09T22:25:36.631Z,13.76
2024-05-09T22:28:04.557Z,13.64
2024-05-09T22:30:36.963Z,13.56
2024-05-09T22:33:08.141Z,13.44
2024-05-09T22:35:35.949Z,13.31
2024-05-09T22:38:03.626Z,13.20
2024-05-09T22:40:41.672Z,13.18
2024-05-09T22:43:17.410Z,13.23
2024-05-09T22:45:45.218Z,13.10
2024-05-09T22:48:12.939Z,12.78
2024-05-09T22:50:40.770Z,12.81
2024-05-09T22:53:08.154Z,12.75
2024-05-09T22:55:35.502Z,12.78
2024-05-09T22:58:03.047Z,12.94
2024-05-09T23:00:32.377Z,12.92
2024-05-09T23:03:01.342Z,12.88
2024-05-09T23:05:29.378Z,12.85
2024-05-09T23:07:57.074Z,12.64
2024-05-09T23:10:31.649Z,12.56
2024-05-09T23:13:03.658Z,12.53
2024-05-09T23:15:31.560Z,12.48
2024-05-09T23:17:59.322Z,12.37
2024-05-09T23:20:35.881Z,12.25
2024-05-09T23:23:07.083Z,12.14
2024-05-09T23:25:35.083Z,12.25
2024-05-09T23:28:02.729Z,12.22
2024-05-09T23:30:37.382Z,12.09
2024-05-09T23:33:09.039Z,12.12
2024-05-09T23:35:36.676Z,12.22
2024-05-09T23:38:04.431Z,12.29
2024-05-09T23:43:02.590Z,12.18
2024-05-09T23:45:30.062Z,12.21
2024-05-09T23:47:57.550Z,12.11
2024-05-09T23:50:33.228Z,12.09
2024-05-09T23:53:03.974Z,11.93
2024-05-09T23:55:32.327Z,11.89
2024-05-09T23:58:00.447Z,11.78
